Loon Lake, New York
Current Conditions -  °F | °C
As of 12:51 AM on Sunday 26 Oct 2014 (Local Time) from KSLK Reporting Station
Overcast Overcast  
Wind Chill: 42°   Ceiling: 3500
Heat Index: 46°   Visibility: 10mi
Dew Point: 42°   Wind: 7mph
Humidity: 86%   Direction: 250°WSW
Pressure: 29.44"   Gusts: NA
Location:  44.5284°N, 74.0904°W
Report Text: KSLK 260451Z AUTO 25006KT 10SM OVC035 08/06 A2944 RMK AO2 SLP972 T00780056 401171006
Loading
Personal Weather Stations






























Interactive Weather Map
Tropical Storm Tracking
New forecast layout! Learn more

10-Day Weather Forecast

Advertisements
Track Severe Weather on mobile